sensor_id;sensor_type;location;lat;lon;timestamp;P1;durP1;ratioP1;P2;durP2;ratioP2
23270;SDS011;11804;51.118;17.058;2023-04-01T00:00:00;8.97;;;4.90;;
23270;SDS011;11804;51.118;17.058;2023-04-01T00:02:27;6.60;;;5.20;;
23270;SDS011;11804;51.118;17.058;2023-04-01T00:04:55;8.00;;;5.10;;
23270;SDS011;11804;51.118;17.058;2023-04-01T00:07:23;7.23;;;5.40;;
23270;SDS011;11804;51.118;17.058;2023-04-01T00:09:51;6.77;;;5.17;;
23270;SDS011;11804;51.118;17.058;2023-04-01T00:12:19;7.83;;;5.47;;
23270;SDS011;11804;51.118;17.058;2023-04-01T00:14:46;9.00;;;5.73;;
23270;SDS011;11804;51.118;17.058;2023-04-01T00:17:14;7.40;;;5.77;;
23270;SDS011;11804;51.118;17.058;2023-04-01T00:19:42;8.30;;;5.73;;
23270;SDS011;11804;51.118;17.058;2023-04-01T00:22:10;7.63;;;5.47;;
23270;SDS011;11804;51.118;17.058;2023-04-01T00:24:37;6.67;;;5.70;;
23270;SDS011;11804;51.118;17.058;2023-04-01T00:27:05;7.87;;;6.10;;
23270;SDS011;11804;51.118;17.058;2023-04-01T00:29:34;6.87;;;5.93;;
23270;SDS011;11804;51.118;17.058;2023-04-01T00:32:01;6.57;;;5.70;;
23270;SDS011;11804;51.118;17.058;2023-04-01T00:34:29;7.87;;;6.30;;
23270;SDS011;11804;51.118;17.058;2023-04-01T00:36:56;10.00;;;6.63;;
23270;SDS011;11804;51.118;17.058;2023-04-01T00:39:24;11.80;;;7.00;;
23270;SDS011;11804;51.118;17.058;2023-04-01T00:41:52;7.77;;;6.80;;
23270;SDS011;11804;51.118;17.058;2023-04-01T00:44:21;7.77;;;6.23;;
23270;SDS011;11804;51.118;17.058;2023-04-01T00:46:53;9.40;;;6.87;;
23270;SDS011;11804;51.118;17.058;2023-04-01T00:49:22;8.80;;;6.73;;
23270;SDS011;11804;51.118;17.058;2023-04-01T00:51:53;69.63;;;44.47;;
23270;SDS011;11804;51.118;17.058;2023-04-01T00:54:24;12.13;;;8.53;;
23270;SDS011;11804;51.118;17.058;2023-04-01T00:57:16;9.87;;;7.60;;
23270;SDS011;11804;51.118;17.058;2023-04-01T00:59:42;10.53;;;7.33;;
23270;SDS011;11804;51.118;17.058;2023-04-01T01:02:12;13.87;;;7.90;;
23270;SDS011;11804;51.118;17.058;2023-04-01T01:04:41;10.30;;;7.97;;
23270;SDS011;11804;51.118;17.058;2023-04-01T01:07:15;8.33;;;7.13;;
23270;SDS011;11804;51.118;17.058;2023-04-01T01:10:02;10.20;;;7.60;;
23270;SDS011;11804;51.118;17.058;2023-04-01T01:12:34;10.80;;;8.57;;
23270;SDS011;11804;51.118;17.058;2023-04-01T01:15:12;10.83;;;7.63;;
23270;SDS011;11804;51.118;17.058;2023-04-01T01:18:09;12.33;;;8.53;;
23270;SDS011;11804;51.118;17.058;2023-04-01T01:26:49;13.23;;;8.73;;
23270;SDS011;11804;51.118;17.058;2023-04-01T01:32:24;11.80;;;8.60;;
23270;SDS011;11804;51.118;17.058;2023-04-01T01:35:09;11.77;;;8.70;;
23270;SDS011;11804;51.118;17.058;2023-04-01T01:37:44;11.20;;;8.63;;
23270;SDS011;11804;51.118;17.058;2023-04-01T01:40:14;12.90;;;8.87;;
23270;SDS011;11804;51.118;17.058;2023-04-01T01:42:44;12.43;;;8.60;;
23270;SDS011;11804;51.118;17.058;2023-04-01T01:45:16;10.87;;;8.00;;
23270;SDS011;11804;51.118;17.058;2023-04-01T01:47:46;11.67;;;8.50;;
23270;SDS011;11804;51.118;17.058;2023-04-01T01:50:17;11.20;;;8.53;;
23270;SDS011;11804;51.118;17.058;2023-04-01T01:52:46;9.87;;;8.07;;
23270;SDS011;11804;51.118;17.058;2023-04-01T01:55:27;11.13;;;8.10;;
23270;SDS011;11804;51.118;17.058;2023-04-01T01:58:02;11.33;;;8.10;;
23270;SDS011;11804;51.118;17.058;2023-04-01T02:00:27;13.80;;;8.30;;
23270;SDS011;11804;51.118;17.058;2023-04-01T02:02:55;11.23;;;7.77;;
23270;SDS011;11804;51.118;17.058;2023-04-01T02:05:24;12.23;;;7.97;;
23270;SDS011;11804;51.118;17.058;2023-04-01T02:07:57;10.47;;;7.90;;
23270;SDS011;11804;51.118;17.058;2023-04-01T02:10:28;9.87;;;8.23;;
23270;SDS011;11804;51.118;17.058;2023-04-01T02:13:00;13.57;;;8.13;;
23270;SDS011;11804;51.118;17.058;2023-04-01T02:15:30;11.37;;;7.33;;
23270;SDS011;11804;51.118;17.058;2023-04-01T02:18:02;9.97;;;7.50;;
23270;SDS011;11804;51.118;17.058;2023-04-01T02:20:32;9.27;;;7.70;;
23270;SDS011;11804;51.118;17.058;2023-04-01T02:23:01;9.87;;;7.03;;
23270;SDS011;11804;51.118;17.058;2023-04-01T02:25:30;9.10;;;7.00;;
23270;SDS011;11804;51.118;17.058;2023-04-01T02:28:00;8.13;;;6.60;;
23270;SDS011;11804;51.118;17.058;2023-04-01T02:30:33;9.73;;;6.87;;
23270;SDS011;11804;51.118;17.058;2023-04-01T02:33:03;8.27;;;6.30;;
23270;SDS011;11804;51.118;17.058;2023-04-01T02:35:32;6.13;;;5.53;;
23270;SDS011;11804;51.118;17.058;2023-04-01T02:38:03;9.20;;;6.40;;
23270;SDS011;11804;51.118;17.058;2023-04-01T02:40:46;8.47;;;6.43;;
23270;SDS011;11804;51.118;17.058;2023-04-01T02:43:11;9.03;;;6.07;;
23270;SDS011;11804;51.118;17.058;2023-04-01T02:45:40;7.87;;;5.67;;
23270;SDS011;11804;51.118;17.058;2023-04-01T02:48:07;7.27;;;5.67;;
23270;SDS011;11804;51.118;17.058;2023-04-01T02:50:35;5.47;;;4.97;;
23270;SDS011;11804;51.118;17.058;2023-04-01T02:53:03;8.30;;;5.57;;
23270;SDS011;11804;51.118;17.058;2023-04-01T02:55:32;6.50;;;5.00;;
23270;SDS011;11804;51.118;17.058;2023-04-01T02:58:00;6.67;;;4.87;;
23270;SDS011;11804;51.118;17.058;2023-04-01T03:00:29;7.57;;;4.63;;
23270;SDS011;11804;51.118;17.058;2023-04-01T03:02:57;7.77;;;4.63;;
23270;SDS011;11804;51.118;17.058;2023-04-01T03:05:25;6.33;;;4.37;;
23270;SDS011;11804;51.118;17.058;2023-04-01T03:07:54;5.60;;;3.93;;
23270;SDS011;11804;51.118;17.058;2023-04-01T03:10:22;6.60;;;4.23;;
23270;SDS011;11804;51.118;17.058;2023-04-01T03:12:51;6.87;;;3.80;;
23270;SDS011;11804;51.118;17.058;2023-04-01T03:15:19;5.60;;;3.70;;
23270;SDS011;11804;51.118;17.058;2023-04-01T03:17:47;5.70;;;3.93;;
23270;SDS011;11804;51.118;17.058;2023-04-01T03:20:14;5.97;;;3.70;;
23270;SDS011;11804;51.118;17.058;2023-04-01T03:22:42;4.70;;;3.50;;
23270;SDS011;11804;51.118;17.058;2023-04-01T03:25:12;5.07;;;3.50;;
23270;SDS011;11804;51.118;17.058;2023-04-01T03:27:40;5.67;;;3.90;;
23270;SDS011;11804;51.118;17.058;2023-04-01T03:30:08;5.93;;;3.60;;
23270;SDS011;11804;51.118;17.058;2023-04-01T03:32:36;5.90;;;3.60;;
23270;SDS011;11804;51.118;17.058;2023-04-01T03:35:04;7.47;;;4.00;;
23270;SDS011;11804;51.118;17.058;2023-04-01T03:37:32;7.07;;;4.07;;
23270;SDS011;11804;51.118;17.058;2023-04-01T03:40:00;5.90;;;3.60;;
23270;SDS011;11804;51.118;17.058;2023-04-01T03:42:27;5.33;;;4.20;;
23270;SDS011;11804;51.118;17.058;2023-04-01T03:44:57;6.37;;;4.07;;
23270;SDS011;11804;51.118;17.058;2023-04-01T03:47:24;7.47;;;3.97;;
23270;SDS011;11804;51.118;17.058;2023-04-01T03:49:52;5.50;;;3.90;;
23270;SDS011;11804;51.118;17.058;2023-04-01T03:52:20;6.57;;;4.30;;
23270;SDS011;11804;51.118;17.058;2023-04-01T03:54:48;6.63;;;4.00;;
23270;SDS011;11804;51.118;17.058;2023-04-01T03:57:16;6.77;;;4.07;;
23270;SDS011;11804;51.118;17.058;2023-04-01T03:59:45;4.57;;;4.17;;
23270;SDS011;11804;51.118;17.058;2023-04-01T04:02:12;5.77;;;4.60;;
23270;SDS011;11804;51.118;17.058;2023-04-01T04:04:40;4.63;;;3.97;;
23270;SDS011;11804;51.118;17.058;2023-04-01T04:07:08;7.17;;;4.50;;
23270;SDS011;11804;51.118;17.058;2023-04-01T04:09:36;5.40;;;4.33;;
23270;SDS011;11804;51.118;17.058;2023-04-01T04:12:03;7.67;;;4.80;;
23270;SDS011;11804;51.118;17.058;2023-04-01T04:14:31;7.60;;;4.87;;
23270;SDS011;11804;51.118;17.058;2023-04-01T04:17:00;8.27;;;4.90;;
23270;SDS011;11804;51.118;17.058;2023-04-01T04:19:31;6.27;;;5.30;;
23270;SDS011;11804;51.118;17.058;2023-04-01T04:22:00;5.80;;;4.60;;
23270;SDS011;11804;51.118;17.058;2023-04-01T04:24:27;6.80;;;4.50;;
23270;SDS011;11804;51.118;17.058;2023-04-01T04:26:55;7.03;;;4.93;;
23270;SDS011;11804;51.118;17.058;2023-04-01T04:29:22;7.90;;;4.70;;
23270;SDS011;11804;51.118;17.058;2023-04-01T04:31:53;7.73;;;4.97;;
23270;SDS011;11804;51.118;17.058;2023-04-01T04:34:21;7.03;;;5.13;;
23270;SDS011;11804;51.118;17.058;2023-04-01T04:36:48;9.67;;;5.33;;
23270;SDS011;11804;51.118;17.058;2023-04-01T04:39:16;6.70;;;5.27;;
23270;SDS011;11804;51.118;17.058;2023-04-01T04:41:44;8.50;;;5.90;;
23270;SDS011;11804;51.118;17.058;2023-04-01T04:44:11;8.70;;;6.13;;
23270;SDS011;11804;51.118;17.058;2023-04-01T04:46:39;8.90;;;5.90;;
23270;SDS011;11804;51.118;17.058;2023-04-01T04:49:07;7.30;;;6.33;;
23270;SDS011;11804;51.118;17.058;2023-04-01T04:51:34;6.70;;;5.33;;
23270;SDS011;11804;51.118;17.058;2023-04-01T04:54:02;6.83;;;5.47;;
23270;SDS011;11804;51.118;17.058;2023-04-01T04:56:31;8.63;;;5.40;;
23270;SDS011;11804;51.118;17.058;2023-04-01T04:58:59;8.47;;;5.00;;
23270;SDS011;11804;51.118;17.058;2023-04-01T05:01:27;7.93;;;5.17;;
23270;SDS011;11804;51.118;17.058;2023-04-01T05:03:55;7.33;;;4.57;;
23270;SDS011;11804;51.118;17.058;2023-04-01T05:06:22;6.83;;;4.33;;
23270;SDS011;11804;51.118;17.058;2023-04-01T05:08:51;5.80;;;4.30;;
23270;SDS011;11804;51.118;17.058;2023-04-01T05:11:19;7.93;;;4.17;;
23270;SDS011;11804;51.118;17.058;2023-04-01T05:13:46;5.00;;;4.00;;
23270;SDS011;11804;51.118;17.058;2023-04-01T05:16:16;7.80;;;4.30;;
23270;SDS011;11804;51.118;17.058;2023-04-01T05:18:46;7.07;;;4.43;;
23270;SDS011;11804;51.118;17.058;2023-04-01T05:21:14;8.90;;;4.43;;
23270;SDS011;11804;51.118;17.058;2023-04-01T05:23:42;5.67;;;4.27;;
23270;SDS011;11804;51.118;17.058;2023-04-01T05:26:11;4.70;;;3.70;;
23270;SDS011;11804;51.118;17.058;2023-04-01T05:28:41;4.60;;;3.90;;
23270;SDS011;11804;51.118;17.058;2023-04-01T05:31:08;5.80;;;4.03;;
23270;SDS011;11804;51.118;17.058;2023-04-01T05:33:36;4.87;;;4.00;;
23270;SDS011;11804;51.118;17.058;2023-04-01T05:36:11;7.70;;;3.87;;
23270;SDS011;11804;51.118;17.058;2023-04-01T05:38:40;5.93;;;3.87;;
23270;SDS011;11804;51.118;17.058;2023-04-01T05:41:09;6.20;;;4.30;;
23270;SDS011;11804;51.118;17.058;2023-04-01T05:43:37;4.77;;;3.50;;
23270;SDS011;11804;51.118;17.058;2023-04-01T05:46:05;5.43;;;4.00;;
23270;SDS011;11804;51.118;17.058;2023-04-01T05:48:34;4.30;;;3.37;;
23270;SDS011;11804;51.118;17.058;2023-04-01T05:51:02;5.20;;;3.77;;
23270;SDS011;11804;51.118;17.058;2023-04-01T05:53:31;4.00;;;3.50;;
23270;SDS011;11804;51.118;17.058;2023-04-01T05:56:01;8.07;;;4.27;;
23270;SDS011;11804;51.118;17.058;2023-04-01T05:58:30;5.90;;;4.13;;
23270;SDS011;11804;51.118;17.058;2023-04-01T06:01:05;4.70;;;3.80;;
23270;SDS011;11804;51.118;17.058;2023-04-01T06:03:34;6.00;;;4.00;;
23270;SDS011;11804;51.118;17.058;2023-04-01T06:06:02;7.43;;;4.60;;
23270;SDS011;11804;51.118;17.058;2023-04-01T06:08:30;6.20;;;4.17;;
23270;SDS011;11804;51.118;17.058;2023-04-01T06:11:07;5.20;;;4.30;;
23270;SDS011;11804;51.118;17.058;2023-04-01T06:14:07;6.00;;;4.60;;
23270;SDS011;11804;51.118;17.058;2023-04-01T06:28:02;6.13;;;4.87;;
23270;SDS011;11804;51.118;17.058;2023-04-01T06:30:38;8.20;;;5.83;;
23270;SDS011;11804;51.118;17.058;2023-04-01T06:33:18;6.90;;;4.70;;
23270;SDS011;11804;51.118;17.058;2023-04-01T06:38:55;9.17;;;4.93;;
23270;SDS011;11804;51.118;17.058;2023-04-01T06:41:28;6.00;;;4.40;;
23270;SDS011;11804;51.118;17.058;2023-04-01T06:49:41;7.43;;;4.50;;
23270;SDS011;11804;51.118;17.058;2023-04-01T06:55:41;7.00;;;5.30;;
23270;SDS011;11804;51.118;17.058;2023-04-01T06:57:35;7.10;;;5.37;;
23270;SDS011;11804;51.118;17.058;2023-04-01T07:00:22;8.87;;;6.07;;
23270;SDS011;11804;51.118;17.058;2023-04-01T07:05:41;7.30;;;5.70;;
23270;SDS011;11804;51.118;17.058;2023-04-01T07:08:16;7.50;;;6.10;;
23270;SDS011;11804;51.118;17.058;2023-04-01T07:10:46;9.97;;;6.20;;
23270;SDS011;11804;51.118;17.058;2023-04-01T07:13:19;8.30;;;6.33;;
23270;SDS011;11804;51.118;17.058;2023-04-01T07:15:48;7.50;;;6.00;;
23270;SDS011;11804;51.118;17.058;2023-04-01T07:18:19;8.73;;;6.17;;
23270;SDS011;11804;51.118;17.058;2023-04-01T07:20:48;6.47;;;5.50;;
23270;SDS011;11804;51.118;17.058;2023-04-01T07:23:25;5.43;;;4.87;;
23270;SDS011;11804;51.118;17.058;2023-04-01T07:25:55;6.10;;;5.00;;
23270;SDS011;11804;51.118;17.058;2023-04-01T07:28:33;7.83;;;5.10;;
23270;SDS011;11804;51.118;17.058;2023-04-01T07:31:26;6.50;;;5.00;;
23270;SDS011;11804;51.118;17.058;2023-04-01T07:36:40;7.20;;;4.80;;
23270;SDS011;11804;51.118;17.058;2023-04-01T07:45:13;7.77;;;6.07;;
23270;SDS011;11804;51.118;17.058;2023-04-01T07:50:22;12.47;;;7.30;;
23270;SDS011;11804;51.118;17.058;2023-04-01T07:53:06;8.23;;;6.20;;
23270;SDS011;11804;51.118;17.058;2023-04-01T07:55:44;9.83;;;6.03;;
23270;SDS011;11804;51.118;17.058;2023-04-01T08:06:43;9.83;;;6.30;;
23270;SDS011;11804;51.118;17.058;2023-04-01T08:12:23;10.27;;;5.77;;
23270;SDS011;11804;51.118;17.058;2023-04-01T08:18:54;10.07;;;5.50;;
23270;SDS011;11804;51.118;17.058;2023-04-01T08:20:39;6.50;;;5.07;;
23270;SDS011;11804;51.118;17.058;2023-04-01T08:28:36;7.23;;;5.03;;
23270;SDS011;11804;51.118;17.058;2023-04-01T08:31:05;10.77;;;5.57;;
23270;SDS011;11804;51.118;17.058;2023-04-01T08:33:34;7.40;;;4.60;;
23270;SDS011;11804;51.118;17.058;2023-04-01T08:36:07;8.90;;;5.30;;
23270;SDS011;11804;51.118;17.058;2023-04-01T08:44:04;7.50;;;4.60;;
23270;SDS011;11804;51.118;17.058;2023-04-01T08:49:49;9.83;;;5.60;;
23270;SDS011;11804;51.118;17.058;2023-04-01T08:58:19;7.20;;;4.90;;
23270;SDS011;11804;51.118;17.058;2023-04-01T09:04:05;6.97;;;5.20;;
23270;SDS011;11804;51.118;17.058;2023-04-01T09:06:51;7.50;;;5.10;;
23270;SDS011;11804;51.118;17.058;2023-04-01T09:09:40;10.40;;;5.27;;
23270;SDS011;11804;51.118;17.058;2023-04-01T09:24:14;6.83;;;4.90;;
23270;SDS011;11804;51.118;17.058;2023-04-01T09:26:48;6.77;;;4.50;;
23270;SDS011;11804;51.118;17.058;2023-04-01T09:34:30;5.07;;;3.70;;
23270;SDS011;11804;51.118;17.058;2023-04-01T09:37:19;8.03;;;4.00;;
23270;SDS011;11804;51.118;17.058;2023-04-01T09:45:53;6.03;;;4.47;;
23270;SDS011;11804;51.118;17.058;2023-04-01T09:51:15;9.60;;;4.60;;
23270;SDS011;11804;51.118;17.058;2023-04-01T10:02:44;6.70;;;4.60;;
23270;SDS011;11804;51.118;17.058;2023-04-01T10:05:25;9.27;;;4.67;;
23270;SDS011;11804;51.118;17.058;2023-04-01T10:13:36;8.30;;;4.67;;
23270;SDS011;11804;51.118;17.058;2023-04-01T10:16:25;7.60;;;4.67;;
23270;SDS011;11804;51.118;17.058;2023-04-01T10:24:30;6.57;;;3.93;;
23270;SDS011;11804;51.118;17.058;2023-04-01T10:27:19;7.13;;;3.37;;
23270;SDS011;11804;51.118;17.058;2023-04-01T10:47:19;6.90;;;5.73;;
23270;SDS011;11804;51.118;17.058;2023-04-01T10:52:30;4.73;;;3.13;;
23270;SDS011;11804;51.118;17.058;2023-04-01T10:55:14;2.53;;;2.23;;
23270;SDS011;11804;51.118;17.058;2023-04-01T11:00:31;2.07;;;1.87;;
23270;SDS011;11804;51.118;17.058;2023-04-01T11:11:40;1.97;;;1.53;;
23270;SDS011;11804;51.118;17.058;2023-04-01T11:17:12;1.63;;;1.53;;
23270;SDS011;11804;51.118;17.058;2023-04-01T11:20:05;2.03;;;1.83;;
23270;SDS011;11804;51.118;17.058;2023-04-01T11:42:28;2.87;;;2.47;;
23270;SDS011;11804;51.118;17.058;2023-04-01T11:48:18;5.43;;;1.60;;
23270;SDS011;11804;51.118;17.058;2023-04-01T11:59:45;4.90;;;2.30;;
23270;SDS011;11804;51.118;17.058;2023-04-01T12:02:38;2.57;;;2.20;;
23270;SDS011;11804;51.118;17.058;2023-04-01T12:10:34;2.37;;;1.63;;
23270;SDS011;11804;51.118;17.058;2023-04-01T12:18:41;6.37;;;3.60;;
23270;SDS011;11804;51.118;17.058;2023-04-01T12:35:08;3.43;;;1.93;;
23270;SDS011;11804;51.118;17.058;2023-04-01T12:37:41;2.97;;;2.33;;
23270;SDS011;11804;51.118;17.058;2023-04-01T12:45:50;3.50;;;2.10;;
23270;SDS011;11804;51.118;17.058;2023-04-01T12:48:36;5.13;;;2.60;;
23270;SDS011;11804;51.118;17.058;2023-04-01T12:51:20;4.50;;;2.33;;
23270;SDS011;11804;51.118;17.058;2023-04-01T12:59:45;3.70;;;1.93;;
23270;SDS011;11804;51.118;17.058;2023-04-01T13:05:23;2.97;;;2.60;;
23270;SDS011;11804;51.118;17.058;2023-04-01T13:14:03;3.20;;;2.50;;
23270;SDS011;11804;51.118;17.058;2023-04-01T13:18:56;3.27;;;2.87;;
23270;SDS011;11804;51.118;17.058;2023-04-01T13:24:51;3.90;;;3.37;;
23270;SDS011;11804;51.118;17.058;2023-04-01T13:26:55;4.50;;;3.37;;
23270;SDS011;11804;51.118;17.058;2023-04-01T13:29:28;5.93;;;3.57;;
23270;SDS011;11804;51.118;17.058;2023-04-01T13:37:38;3.70;;;2.23;;
23270;SDS011;11804;51.118;17.058;2023-04-01T13:48:32;2.97;;;2.77;;
23270;SDS011;11804;51.118;17.058;2023-04-01T13:51:20;6.27;;;2.97;;
23270;SDS011;11804;51.118;17.058;2023-04-01T14:02:14;7.00;;;4.10;;
23270;SDS011;11804;51.118;17.058;2023-04-01T14:08:00;4.00;;;2.80;;
23270;SDS011;11804;51.118;17.058;2023-04-01T14:10:43;4.07;;;2.50;;
23270;SDS011;11804;51.118;17.058;2023-04-01T14:16:27;4.07;;;2.93;;
23270;SDS011;11804;51.118;17.058;2023-04-01T14:18:59;3.63;;;2.70;;
23270;SDS011;11804;51.118;17.058;2023-04-01T14:21:38;5.37;;;2.47;;
23270;SDS011;11804;51.118;17.058;2023-04-01T14:26:53;5.43;;;2.77;;
23270;SDS011;11804;51.118;17.058;2023-04-01T14:44:01;3.77;;;3.00;;
23270;SDS011;11804;51.118;17.058;2023-04-01T14:49:21;5.67;;;4.40;;
23270;SDS011;11804;51.118;17.058;2023-04-01T14:54:49;5.77;;;4.40;;
23270;SDS011;11804;51.118;17.058;2023-04-01T14:57:28;6.97;;;5.37;;
23270;SDS011;11804;51.118;17.058;2023-04-01T15:05:31;5.33;;;4.73;;
23270;SDS011;11804;51.118;17.058;2023-04-01T15:13:58;6.57;;;4.37;;
23270;SDS011;11804;51.118;17.058;2023-04-01T15:21:50;5.97;;;4.97;;
23270;SDS011;11804;51.118;17.058;2023-04-01T15:24:26;7.43;;;4.17;;
23270;SDS011;11804;51.118;17.058;2023-04-01T15:27:20;8.33;;;4.90;;
23270;SDS011;11804;51.118;17.058;2023-04-01T15:30:19;7.03;;;5.40;;
23270;SDS011;11804;51.118;17.058;2023-04-01T15:33:15;8.30;;;5.07;;
23270;SDS011;11804;51.118;17.058;2023-04-01T15:38:44;7.77;;;5.37;;
23270;SDS011;11804;51.118;17.058;2023-04-01T15:41:14;10.40;;;6.13;;
23270;SDS011;11804;51.118;17.058;2023-04-01T15:43:47;9.33;;;6.87;;
23270;SDS011;11804;51.118;17.058;2023-04-01T16:00:29;8.27;;;6.77;;
23270;SDS011;11804;51.118;17.058;2023-04-01T16:05:54;8.57;;;7.33;;
23270;SDS011;11804;51.118;17.058;2023-04-01T16:14:28;10.50;;;8.20;;
23270;SDS011;11804;51.118;17.058;2023-04-01T16:22:38;10.63;;;8.20;;
23270;SDS011;11804;51.118;17.058;2023-04-01T16:25:30;11.60;;;8.73;;
23270;SDS011;11804;51.118;17.058;2023-04-01T16:30:43;9.63;;;8.43;;
23270;SDS011;11804;51.118;17.058;2023-04-01T16:33:19;12.37;;;8.60;;
23270;SDS011;11804;51.118;17.058;2023-04-01T16:42:09;11.10;;;9.13;;
23270;SDS011;11804;51.118;17.058;2023-04-01T16:45:06;13.97;;;9.87;;
23270;SDS011;11804;51.118;17.058;2023-04-01T16:47:47;14.23;;;10.90;;
23270;SDS011;11804;51.118;17.058;2023-04-01T16:50:15;13.07;;;10.60;;
23270;SDS011;11804;51.118;17.058;2023-04-01T16:52:57;13.13;;;10.30;;
23270;SDS011;11804;51.118;17.058;2023-04-01T16:58:18;14.77;;;10.77;;
23270;SDS011;11804;51.118;17.058;2023-04-01T17:03:52;15.87;;;12.07;;
23270;SDS011;11804;51.118;17.058;2023-04-01T17:06:40;17.83;;;13.10;;
23270;SDS011;11804;51.118;17.058;2023-04-01T17:09:20;16.87;;;12.87;;
23270;SDS011;11804;51.118;17.058;2023-04-01T17:28:36;20.73;;;15.03;;
23270;SDS011;11804;51.118;17.058;2023-04-01T17:36:47;21.30;;;14.60;;
23270;SDS011;11804;51.118;17.058;2023-04-01T17:42:11;19.23;;;15.07;;
23270;SDS011;11804;51.118;17.058;2023-04-01T17:47:25;24.13;;;16.10;;
23270;SDS011;11804;51.118;17.058;2023-04-01T17:50:07;24.03;;;17.30;;
23270;SDS011;11804;51.118;17.058;2023-04-01T17:52:47;24.63;;;17.47;;
23270;SDS011;11804;51.118;17.058;2023-04-01T17:58:29;27.50;;;18.37;;
23270;SDS011;11804;51.118;17.058;2023-04-01T18:01:10;27.77;;;19.60;;
23270;SDS011;11804;51.118;17.058;2023-04-01T18:03:54;30.90;;;21.57;;
23270;SDS011;11804;51.118;17.058;2023-04-01T18:06:37;31.30;;;21.37;;
23270;SDS011;11804;51.118;17.058;2023-04-01T18:09:32;33.97;;;22.83;;
23270;SDS011;11804;51.118;17.058;2023-04-01T18:21:05;38.63;;;24.80;;
23270;SDS011;11804;51.118;17.058;2023-04-01T18:23:39;38.27;;;25.13;;
23270;SDS011;11804;51.118;17.058;2023-04-01T18:26:20;37.73;;;25.63;;
23270;SDS011;11804;51.118;17.058;2023-04-01T18:28:55;42.17;;;26.00;;
23270;SDS011;11804;51.118;17.058;2023-04-01T18:31:39;35.57;;;24.47;;
23270;SDS011;11804;51.118;17.058;2023-04-01T18:34:18;37.23;;;24.83;;
23270;SDS011;11804;51.118;17.058;2023-04-01T18:40:03;36.73;;;25.00;;
23270;SDS011;11804;51.118;17.058;2023-04-01T18:41:53;41.53;;;25.30;;
23270;SDS011;11804;51.118;17.058;2023-04-01T18:44:41;37.00;;;24.23;;
23270;SDS011;11804;51.118;17.058;2023-04-01T18:47:23;39.87;;;26.10;;
23270;SDS011;11804;51.118;17.058;2023-04-01T18:52:25;40.87;;;26.33;;
23270;SDS011;11804;51.118;17.058;2023-04-01T19:00:20;39.03;;;26.47;;
23270;SDS011;11804;51.118;17.058;2023-04-01T19:03:02;42.60;;;26.47;;
23270;SDS011;11804;51.118;17.058;2023-04-01T19:05:34;44.77;;;27.83;;
23270;SDS011;11804;51.118;17.058;2023-04-01T19:11:06;40.07;;;26.27;;
23270;SDS011;11804;51.118;17.058;2023-04-01T19:22:16;36.93;;;25.00;;
23270;SDS011;11804;51.118;17.058;2023-04-01T19:27:49;36.60;;;24.10;;
23270;SDS011;11804;51.118;17.058;2023-04-01T19:30:30;39.90;;;25.60;;
23270;SDS011;11804;51.118;17.058;2023-04-01T19:33:25;40.43;;;25.43;;
23270;SDS011;11804;51.118;17.058;2023-04-01T19:39:03;36.07;;;23.83;;
23270;SDS011;11804;51.118;17.058;2023-04-01T19:41:34;38.20;;;24.93;;
23270;SDS011;11804;51.118;17.058;2023-04-01T19:52:32;38.07;;;24.83;;
23270;SDS011;11804;51.118;17.058;2023-04-01T19:55:21;41.43;;;26.50;;
23270;SDS011;11804;51.118;17.058;2023-04-01T19:57:54;38.90;;;26.37;;
23270;SDS011;11804;51.118;17.058;2023-04-01T20:00:43;42.63;;;26.87;;
23270;SDS011;11804;51.118;17.058;2023-04-01T20:05:58;39.60;;;26.27;;
23270;SDS011;11804;51.118;17.058;2023-04-01T20:19:49;43.30;;;27.23;;
23270;SDS011;11804;51.118;17.058;2023-04-01T20:25:14;39.93;;;26.90;;
23270;SDS011;11804;51.118;17.058;2023-04-01T20:36:40;41.03;;;27.73;;
23270;SDS011;11804;51.118;17.058;2023-04-01T20:42:24;44.60;;;29.37;;
23270;SDS011;11804;51.118;17.058;2023-04-01T20:45:09;46.23;;;28.50;;
23270;SDS011;11804;51.118;17.058;2023-04-01T21:23:17;49.97;;;32.20;;
23270;SDS011;11804;51.118;17.058;2023-04-01T21:25:50;49.23;;;32.67;;
23270;SDS011;11804;51.118;17.058;2023-04-01T21:39:27;47.13;;;30.27;;
23270;SDS011;11804;51.118;17.058;2023-04-01T21:48:48;45.60;;;29.07;;
23270;SDS011;11804;51.118;17.058;2023-04-01T21:53:55;47.03;;;29.40;;
23270;SDS011;11804;51.118;17.058;2023-04-01T22:05:37;51.40;;;31.53;;
23270;SDS011;11804;51.118;17.058;2023-04-01T22:08:26;52.40;;;32.13;;
23270;SDS011;11804;51.118;17.058;2023-04-01T22:11:15;48.83;;;29.53;;
23270;SDS011;11804;51.118;17.058;2023-04-01T22:13:42;47.80;;;29.87;;
23270;SDS011;11804;51.118;17.058;2023-04-01T22:16:27;47.27;;;30.77;;
23270;SDS011;11804;51.118;17.058;2023-04-01T22:19:40;47.00;;;30.30;;
23270;SDS011;11804;51.118;17.058;2023-04-01T22:21:47;46.77;;;28.93;;
23270;SDS011;11804;51.118;17.058;2023-04-01T22:24:24;47.27;;;30.43;;
23270;SDS011;11804;51.118;17.058;2023-04-01T22:29:31;44.67;;;28.43;;
23270;SDS011;11804;51.118;17.058;2023-04-01T22:34:57;42.47;;;28.03;;
23270;SDS011;11804;51.118;17.058;2023-04-01T22:37:44;38.83;;;26.30;;
23270;SDS011;11804;51.118;17.058;2023-04-01T22:40:25;39.73;;;28.20;;
23270;SDS011;11804;51.118;17.058;2023-04-01T22:43:07;41.73;;;27.97;;
23270;SDS011;11804;51.118;17.058;2023-04-01T22:48:28;40.10;;;27.13;;
23270;SDS011;11804;51.118;17.058;2023-04-01T22:54:07;38.80;;;25.23;;
23270;SDS011;11804;51.118;17.058;2023-04-01T22:56:53;36.93;;;25.53;;
23270;SDS011;11804;51.118;17.058;2023-04-01T23:04:47;37.33;;;25.47;;
23270;SDS011;11804;51.118;17.058;2023-04-01T23:10:05;34.27;;;23.57;;
23270;SDS011;11804;51.118;17.058;2023-04-01T23:12:35;29.37;;;22.10;;
23270;SDS011;11804;51.118;17.058;2023-04-01T23:15:03;30.93;;;23.03;;
23270;SDS011;11804;51.118;17.058;2023-04-01T23:17:36;31.03;;;22.27;;
23270;SDS011;11804;51.118;17.058;2023-04-01T23:23:19;26.90;;;20.57;;
23270;SDS011;11804;51.118;17.058;2023-04-01T23:33:55;23.73;;;18.43;;
23270;SDS011;11804;51.118;17.058;2023-04-01T23:36:25;22.23;;;16.67;;
23270;SDS011;11804;51.118;17.058;2023-04-01T23:38:54;20.87;;;15.47;;
23270;SDS011;11804;51.118;17.058;2023-04-01T23:41:25;21.40;;;16.73;;
23270;SDS011;11804;51.118;17.058;2023-04-01T23:44:00;20.60;;;16.27;;
23270;SDS011;11804;51.118;17.058;2023-04-01T23:46:38;20.47;;;16.47;;
23270;SDS011;11804;51.118;17.058;2023-04-01T23:49:30;21.90;;;17.00;;
23270;SDS011;11804;51.118;17.058;2023-04-01T23:51:53;21.80;;;16.60;;
23270;SDS011;11804;51.118;17.058;2023-04-01T23:54:24;22.73;;;17.10;;
23270;SDS011;11804;51.118;17.058;2023-04-01T23:57:10;22.90;;;17.63;;
23270;SDS011;11804;51.118;17.058;2023-04-01T23:59:35;22.43;;;16.97;;
